Time;durP1;ratioP1;P1;durP2;ratioP2;P2;SDS_P1;SDS_P2;PMS_P1;PMS_P2;Temp;Humidity;BMP_temperature;BMP_pressure;BME280_temperature;BME280_humidity;BME280_pressure;Samples;Min_cycle;Max_cycle;Signal;HPM_P1;HPM_P2
2021/01/27 00:00:08;;;;;;;1999.90;999.90;;;3.10;99.90;;;;;;5051465;28;20168;-68
2021/01/27 00:02:34;;;;;;;1999.90;999.90;;;3.00;99.90;;;;;;5051409;28;20759;-68
2021/01/27 00:05:00;;;;;;;1999.90;999.90;;;3.00;99.90;;;;;;5051535;28;20183;-68
2021/01/27 00:07:26;;;;;;;1999.90;999.90;;;3.00;99.90;;;;;;5051637;28;20178;-67
2021/01/27 00:09:51;;;;;;;1999.90;999.90;;;3.00;99.90;;;;;;5051350;28;20245;-67
2021/01/27 00:12:17;;;;;;;1999.90;999.90;;;3.10;99.90;;;;;;5051260;28;20203;-68
2021/01/27 00:14:42;;;;;;;1999.90;999.90;;;3.10;99.90;;;;;;5051394;28;20167;-68
2021/01/27 00:17:08;;;;;;;1999.90;999.90;;;3.10;99.90;;;;;;5051089;28;20174;-68
2021/01/27 00:19:33;;;;;;;1999.90;999.90;;;3.10;99.90;;;;;;5050771;28;20198;-68
2021/01/27 00:21:59;;;;;;;1999.90;999.90;;;3.10;99.90;;;;;;5051221;28;20183;-68
2021/01/27 00:24:25;;;;;;;1999.90;999.90;;;3.10;99.90;;;;;;5051246;28;20545;-67
2021/01/27 00:26:50;;;;;;;1999.90;999.90;;;3.10;99.90;;;;;;5051218;28;20168;-68
2021/01/27 00:29:16;;;;;;;1999.90;999.90;;;3.10;99.90;;;;;;5050918;28;20702;-68
2021/01/27 00:31:41;;;;;;;1999.90;999.90;;;3.10;99.90;;;;;;5050971;28;20187;-68
2021/01/27 00:34:07;;;;;;;1999.90;999.90;;;3.10;99.90;;;;;;5051033;28;20637;-67
2021/01/27 00:36:33;;;;;;;1999.90;999.90;;;3.10;99.90;;;;;;5051275;28;20164;-68
2021/01/27 00:38:59;;;;;;;1999.90;999.90;;;3.20;99.90;;;;;;5051212;28;20191;-67
2021/01/27 00:41:24;;;;;;;1999.90;999.90;;;3.20;99.90;;;;;;5051014;28;20168;-68
2021/01/27 00:43:50;;;;;;;1999.90;999.90;;;3.20;99.90;;;;;;5051081;28;20487;-67
2021/01/27 00:46:15;;;;;;;1999.90;999.90;;;3.20;99.90;;;;;;5050910;28;20175;-67
2021/01/27 00:48:41;;;;;;;1999.90;999.90;;;3.20;99.90;;;;;;5050818;28;20264;-67
2021/01/27 00:51:06;;;;;;;1999.90;999.90;;;3.20;99.90;;;;;;5051046;28;20172;-68
2021/01/27 00:53:32;;;;;;;1999.90;999.90;;;3.10;99.90;;;;;;5050764;28;20227;-67
2021/01/27 00:55:58;;;;;;;1999.90;999.90;;;3.20;99.90;;;;;;5050831;28;20175;-68
2021/01/27 00:58:23;;;;;;;1999.90;999.90;;;3.20;99.90;;;;;;5050590;28;20225;-67
2021/01/27 01:00:49;;;;;;;1999.90;999.90;;;3.20;99.90;;;;;;5050789;28;20553;-68
2021/01/27 01:03:14;;;;;;;1999.90;999.90;;;3.20;99.90;;;;;;5050604;28;20217;-68
2021/01/27 01:05:42;;;;;;;1999.90;999.90;;;3.20;99.90;;;;;;5050729;28;20175;-68
2021/01/27 01:08:11;;;;;;;1999.90;999.90;;;3.30;99.90;;;;;;5050670;28;20587;-68
2021/01/27 01:10:40;;;;;;;1999.90;999.90;;;3.30;99.90;;;;;;5050782;28;20198;-67
2021/01/27 01:13:14;;;;;;;1999.90;999.90;;;3.30;99.90;;;;;;5050475;28;20622;-68
2021/01/27 01:15:40;;;;;;;1999.90;999.90;;;3.30;99.90;;;;;;5050619;28;20206;-68
2021/01/27 01:18:06;;;;;;;1999.90;999.90;;;3.40;99.90;;;;;;5050421;28;20172;-67
2021/01/27 01:20:31;;;;;;;1999.90;999.90;;;3.50;99.90;;;;;;5050676;28;20175;-67
2021/01/27 01:22:59;;;;;;;1999.90;999.90;;;3.60;99.90;;;;;;5050541;28;20655;-67
2021/01/27 01:25:28;;;;;;;1999.90;999.90;;;3.70;99.90;;;;;;5050569;28;20245;-68
2021/01/27 01:27:54;;;;;;;1999.90;999.90;;;3.70;99.90;;;;;;5050571;28;20839;-68
2021/01/27 01:30:24;;;;;;;1999.90;999.90;;;3.70;99.90;;;;;;5053336;28;20176;-68
2021/01/27 01:32:51;;;;;;;1999.90;999.90;;;3.70;99.90;;;;;;5054335;28;20217;-68
2021/01/27 01:35:18;;;;;;;1999.90;999.90;;;3.80;99.90;;;;;;5054406;28;20171;-67
2021/01/27 01:37:44;;;;;;;1999.90;999.90;;;3.80;99.90;;;;;;5054402;28;20172;-68
2021/01/27 01:40:18;;;;;;;1999.90;999.90;;;3.80;99.90;;;;;;5054413;28;20687;-68
2021/01/27 01:42:43;;;;;;;1999.90;999.90;;;3.80;99.90;;;;;;5054278;28;20199;-67
2021/01/27 01:45:31;;;;;;;1999.90;999.90;;;3.80;99.90;;;;;;5054121;28;20186;-67
2021/01/27 01:48:01;;;;;;;1999.90;999.90;;;3.80;99.90;;;;;;5054166;28;20187;-68
2021/01/27 01:50:28;;;;;;;1999.90;999.90;;;3.80;99.90;;;;;;5053942;28;20192;-67
2021/01/27 01:52:56;;;;;;;1999.90;999.90;;;3.80;99.90;;;;;;5053908;28;20277;-67
2021/01/27 01:55:22;;;;;;;1999.90;999.90;;;3.70;99.90;;;;;;5053980;28;20170;-68
2021/01/27 01:57:52;;;;;;;1999.90;999.90;;;3.50;99.90;;;;;;5053934;28;20160;-67
2021/01/27 02:00:20;;;;;;;1999.90;999.90;;;3.40;99.90;;;;;;5053615;28;20178;-68
2021/01/27 02:02:45;;;;;;;1999.90;999.90;;;3.30;99.90;;;;;;5053615;28;20203;-67
2021/01/27 02:05:24;;;;;;;1999.90;999.90;;;3.30;99.90;;;;;;5053845;28;20194;-67
2021/01/27 02:07:52;;;;;;;1999.90;999.90;;;3.30;99.90;;;;;;5053766;28;20225;-67
2021/01/27 02:10:19;;;;;;;1999.90;999.90;;;3.30;99.90;;;;;;5053470;28;20607;-68
2021/01/27 02:13:06;;;;;;;1999.90;999.90;;;3.40;99.90;;;;;;5053757;28;20211;-68
2021/01/27 02:15:56;;;;;;;1999.90;999.90;;;3.30;99.90;;;;;;5053751;28;20164;-67
2021/01/27 02:18:35;;;;;;;1999.90;999.90;;;3.40;99.90;;;;;;5053397;28;20175;-67
2021/01/27 02:21:23;;;;;;;1999.90;999.90;;;3.30;99.90;;;;;;5053642;28;20160;-68
2021/01/27 02:24:22;;;;;;;1999.90;999.90;;;3.30;99.90;;;;;;5053503;28;20183;-66
2021/01/27 02:26:54;;;;;;;1999.90;999.90;;;3.30;99.90;;;;;;5053478;28;20174;-67
2021/01/27 02:29:57;;;;;;;1999.90;999.90;;;3.30;99.90;;;;;;5053176;28;20250;-68
2021/01/27 02:32:22;;;;;;;1999.90;999.90;;;3.30;99.90;;;;;;5053242;28;20201;-68
2021/01/27 02:35:02;;;;;;;1999.90;999.90;;;3.30;99.90;;;;;;5053283;28;20243;-66
2021/01/27 02:37:39;;;;;;;1999.90;999.90;;;3.30;99.90;;;;;;5053204;28;20171;-67
2021/01/27 02:40:29;;;;;;;1999.90;999.90;;;3.30;99.90;;;;;;5052980;28;20160;-67
2021/01/27 02:43:02;;;;;;;1999.90;999.90;;;3.30;99.90;;;;;;5052646;28;20257;-68
2021/01/27 02:45:33;;;;;;;1999.90;999.90;;;3.30;99.90;;;;;;5053089;28;20604;-67
2021/01/27 02:48:34;;;;;;;1999.90;999.90;;;3.30;99.90;;;;;;5053068;28;20167;-68
2021/01/27 02:51:12;;;;;;;1999.90;999.90;;;3.30;99.90;;;;;;5048884;28;20179;-67
2021/01/27 02:53:46;;;;;;;1999.90;999.90;;;3.30;99.90;;;;;;5053056;28;20665;-68
2021/01/27 02:56:40;;;;;;;1999.90;999.90;;;3.30;99.90;;;;;;5052945;28;20540;-67
2021/01/27 02:59:12;;;;;;;1999.90;999.90;;;3.30;99.90;;;;;;5052635;28;20702;-68
2021/01/27 03:01:57;;;;;;;1999.90;999.90;;;3.30;99.90;;;;;;5052724;28;20337;-68
2021/01/27 03:04:30;;;;;;;1999.90;999.90;;;3.30;99.90;;;;;;5052921;28;20257;-68
2021/01/27 03:06:57;;;;;;;1999.90;999.90;;;3.30;99.90;;;;;;5052802;28;20202;-68
2021/01/27 03:09:56;;;;;;;1999.90;999.90;;;3.20;99.90;;;;;;5052498;28;20625;-67
2021/01/27 03:12:22;;;;;;;1999.90;999.90;;;3.20;99.90;;;;;;5052481;28;20188;-68
2021/01/27 03:14:48;;;;;;;1999.90;999.90;;;3.20;99.90;;;;;;5052688;28;20548;-67
2021/01/27 03:17:16;;;;;;;1999.90;999.90;;;3.10;99.90;;;;;;5052689;28;20809;-67
2021/01/27 03:20:02;;;;;;;1999.90;999.90;;;3.10;99.90;;;;;;5052220;28;20266;-67
2021/01/27 03:23:15;;;;;;;1999.90;999.90;;;3.10;99.90;;;;;;5052240;28;20195;-68
2021/01/27 03:25:54;;;;;;;1999.90;999.90;;;3.10;99.90;;;;;;5052385;28;20217;-68
2021/01/27 03:28:31;;;;;;;1999.90;999.90;;;3.10;99.90;;;;;;5052105;28;20172;-68
2021/01/27 03:30:57;;;;;;;1999.90;999.90;;;3.10;99.90;;;;;;5052263;28;20201;-67
2021/01/27 03:33:35;;;;;;;1999.90;999.90;;;3.10;99.90;;;;;;5052019;28;20200;-67
2021/01/27 03:36:06;;;;;;;1999.90;999.90;;;3.10;99.90;;;;;;5052200;28;20489;-68
2021/01/27 03:38:43;;;;;;;1999.90;999.90;;;3.10;99.90;;;;;;5052022;28;20525;-68
2021/01/27 03:41:16;;;;;;;1999.90;999.90;;;3.00;99.90;;;;;;5052013;28;20171;-67
2021/01/27 03:44:06;;;;;;;1999.90;999.90;;;3.00;99.90;;;;;;5051914;28;20198;-67
2021/01/27 03:47:07;;;;;;;1999.90;999.90;;;3.00;99.90;;;;;;5051939;28;20164;-67
2021/01/27 03:49:43;;;;;;;1999.90;999.90;;;3.00;99.90;;;;;;5040997;28;20649;-67
2021/01/27 03:52:37;;;;;;;1999.90;999.90;;;3.00;99.90;;;;;;5051129;28;20652;-67
2021/01/27 03:55:13;;;;;;;1999.90;999.90;;;3.00;99.90;;;;;;5051807;28;20668;-67
2021/01/27 03:57:45;;;;;;;1999.90;999.90;;;3.00;99.90;;;;;;5051742;28;20163;-67
2021/01/27 04:00:12;;;;;;;1999.90;999.90;;;2.90;99.90;;;;;;5051410;28;20653;-67
2021/01/27 04:02:37;;;;;;;1999.90;999.90;;;3.00;99.90;;;;;;5051420;28;20212;-67
2021/01/27 04:05:03;;;;;;;1999.90;999.90;;;3.00;99.90;;;;;;5051623;28;20168;-67
2021/01/27 04:07:29;;;;;;;1999.90;999.90;;;2.90;99.90;;;;;;5051530;28;20167;-68
2021/01/27 04:09:54;;;;;;;1999.90;999.90;;;2.90;99.90;;;;;;5051218;28;20406;-67
2021/01/27 04:12:20;;;;;;;1999.90;999.90;;;2.90;99.90;;;;;;5051377;28;20195;-67
2021/01/27 04:14:45;;;;;;;1999.90;999.90;;;3.00;99.90;;;;;;5051515;28;20199;-67
2021/01/27 04:17:31;;;;;;;1999.90;999.90;;;3.00;99.90;;;;;;5051503;28;20670;-67
2021/01/27 04:19:58;;;;;;;1999.90;999.90;;;3.00;99.90;;;;;;5050869;28;20222;-68
2021/01/27 04:22:24;;;;;;;1999.90;999.90;;;2.90;99.90;;;;;;5051214;28;20287;-67
2021/01/27 04:24:50;;;;;;;1999.90;999.90;;;3.00;99.90;;;;;;5051221;28;20250;-68
2021/01/27 04:27:15;;;;;;;1999.90;999.90;;;2.90;99.90;;;;;;5051327;28;20402;-68
2021/01/27 04:29:41;;;;;;;1999.90;999.90;;;2.90;99.90;;;;;;5050887;28;20175;-68
2021/01/27 04:32:07;;;;;;;1999.90;999.90;;;3.00;99.90;;;;;;5051156;28;20238;-68
2021/01/27 04:34:35;;;;;;;1999.90;999.90;;;2.90;99.90;;;;;;5051323;28;20178;-68
2021/01/27 04:37:02;;;;;;;1999.90;999.90;;;2.90;99.90;;;;;;5051356;28;20250;-67
2021/01/27 04:39:27;;;;;;;1999.90;999.90;;;2.90;99.90;;;;;;5051058;28;20222;-68
2021/01/27 04:41:54;;;;;;;1999.90;999.90;;;2.80;99.90;;;;;;5051068;28;20183;-67
2021/01/27 04:44:21;;;;;;;1999.90;999.90;;;2.80;99.90;;;;;;5092596;22;20226;-67
2021/01/27 04:47:00;;;;;;;1999.90;999.90;;;2.80;99.90;;;;;;5051016;28;20178;-67
2021/01/27 04:49:30;;;;;;;1999.90;999.90;;;2.80;99.90;;;;;;5050789;28;20528;-67
2021/01/27 04:52:10;;;;;;;1999.90;999.90;;;2.80;99.90;;;;;;5050900;28;20258;-68
2021/01/27 04:55:15;;;;;;;1999.90;999.90;;;2.80;99.90;;;;;;5050890;28;20190;-68
2021/01/27 04:58:01;;;;;;;1999.90;999.90;;;2.80;99.90;;;;;;5008675;28;20540;-68
2021/01/27 05:01:02;;;;;;;1999.90;999.90;;;2.80;99.90;;;;;;5008509;28;20176;-68
2021/01/27 05:03:46;;;;;;;1999.90;999.90;;;2.80;99.90;;;;;;5044187;28;20623;-68
2021/01/27 05:06:23;;;;;;;1999.90;999.90;;;2.80;99.90;;;;;;5050779;28;20172;-68
2021/01/27 05:08:51;;;;;;;1999.90;999.90;;;2.70;99.90;;;;;;5050526;28;20233;-68
2021/01/27 05:11:19;;;;;;;1999.90;999.90;;;2.70;99.90;;;;;;5050663;28;20535;-68
2021/01/27 05:13:49;;;;;;;1999.90;999.90;;;2.70;99.90;;;;;;5050497;28;20258;-68
2021/01/27 05:16:23;;;;;;;1999.90;999.90;;;2.70;99.90;;;;;;5050687;28;20259;-68
2021/01/27 05:18:51;;;;;;;1999.90;999.90;;;2.70;99.90;;;;;;5050421;28;20178;-68
2021/01/27 05:21:23;;;;;;;1999.90;999.90;;;2.60;99.90;;;;;;5050622;28;20242;-67
2021/01/27 05:23:48;;;;;;;1999.90;999.90;;;2.60;99.90;;;;;;5050469;28;20215;-67
2021/01/27 05:26:16;;;;;;;1999.90;999.90;;;2.60;99.90;;;;;;5050617;28;20675;-67
2021/01/27 05:28:47;;;;;;;1999.90;999.90;;;2.70;99.90;;;;;;5050206;28;20655;-67
2021/01/27 05:31:13;;;;;;;1999.90;999.90;;;2.60;99.90;;;;;;5050511;28;20187;-67
2021/01/27 05:33:47;;;;;;;1999.90;999.90;;;2.70;99.90;;;;;;5050373;28;20393;-67
2021/01/27 05:36:20;;;;;;;1999.90;999.90;;;2.70;99.90;;;;;;5050413;28;20191;-68
2021/01/27 05:38:47;;;;;;;1999.90;999.90;;;2.70;99.90;;;;;;5050191;28;20176;-67
2021/01/27 05:41:27;;;;;;;1999.90;999.90;;;2.70;99.90;;;;;;5050471;28;20533;-67
2021/01/27 05:44:08;;;;;;;1999.90;999.90;;;2.80;99.90;;;;;;5050206;28;20211;-67
2021/01/27 05:46:36;;;;;;;1999.90;999.90;;;2.70;99.90;;;;;;5050338;28;20175;-67
2021/01/27 05:49:09;;;;;;;1999.90;999.90;;;2.70;99.90;;;;;;5050083;28;20696;-67
2021/01/27 05:51:37;;;;;;;1999.90;999.90;;;2.70;99.90;;;;;;5050423;28;20179;-67
2021/01/27 05:54:23;;;;;;;1999.90;999.90;;;2.70;99.90;;;;;;5050077;28;20209;-67
2021/01/27 05:56:49;;;;;;;1999.90;999.90;;;2.60;99.90;;;;;;5050272;28;20187;-67
2021/01/27 05:59:24;;;;;;;1999.90;999.90;;;2.50;99.90;;;;;;5049967;28;20633;-67
2021/01/27 06:01:52;;;;;;;1999.90;999.90;;;2.40;99.90;;;;;;5050179;28;20179;-67
2021/01/27 06:04:25;;;;;;;1999.90;999.90;;;2.20;99.90;;;;;;5050214;28;20241;-67
2021/01/27 06:06:51;;;;;;;1999.90;999.90;;;2.20;99.90;;;;;;5050174;28;20168;-67
2021/01/27 06:09:33;;;;;;;1999.90;999.90;;;2.10;99.90;;;;;;5050009;28;20707;-67
2021/01/27 06:12:20;;;;;;;1999.90;999.90;;;2.10;99.90;;;;;;5050099;28;20246;-67
2021/01/27 06:15:03;;;;;;;1999.90;999.90;;;2.00;99.90;;;;;;5042591;28;20207;-67
2021/01/27 06:17:39;;;;;;;1999.90;999.90;;;1.90;99.90;;;;;;5053132;28;20167;-67
2021/01/27 06:20:17;;;;;;;1999.90;999.90;;;2.00;99.90;;;;;;5053360;28;20212;-67
2021/01/27 06:23:10;;;;;;;1999.90;999.90;;;1.90;99.90;;;;;;5053657;28;20179;-67
2021/01/27 06:25:56;;;;;;;1999.90;999.90;;;1.90;99.90;;;;;;5053511;28;20172;-67
2021/01/27 06:28:59;;;;;;;1999.90;999.90;;;1.80;99.90;;;;;;5053317;28;20254;-67
2021/01/27 06:31:59;;;;;;;1999.90;999.90;;;1.90;99.90;;;;;;5053404;28;20262;-67
2021/01/27 06:34:33;;;;;;;1999.90;999.90;;;1.90;99.90;;;;;;5053341;28;20551;-67
2021/01/27 06:37:14;;;;;;;1999.90;999.90;;;2.00;99.90;;;;;;5053384;28;20167;-67
2021/01/27 06:40:10;;;;;;;1999.90;999.90;;;2.00;99.90;;;;;;5053221;28;20172;-67
2021/01/27 06:42:39;;;;;;;1999.90;999.90;;;2.00;99.90;;;;;;5053020;28;20242;-67
2021/01/27 06:45:25;;;;;;;1999.90;999.90;;;2.00;99.90;;;;;;5053128;28;20207;-67
2021/01/27 06:48:28;;;;;;;1999.90;999.90;;;2.00;99.90;;;;;;5053104;28;20167;-67
2021/01/27 06:51:07;;;;;;;1999.90;999.90;;;2.00;99.90;;;;;;5053089;28;20588;-67
2021/01/27 06:53:54;;;;;;;1999.90;999.90;;;2.00;99.90;;;;;;5052880;28;20211;-67
2021/01/27 06:56:45;;;;;;;1999.90;999.90;;;2.00;99.90;;;;;;5053105;28;20194;-67
2021/01/27 06:59:48;;;;;;;1999.90;999.90;;;2.00;99.90;;;;;;5052604;28;20176;-68
2021/01/27 07:02:34;;;;;;;1999.90;999.90;;;2.00;99.90;;;;;;5052845;28;20167;-67
2021/01/27 07:05:34;;;;;;;1999.90;999.90;;;2.00;99.90;;;;;;5052935;28;20568;-68
2021/01/27 07:08:15;;;;;;;1999.90;999.90;;;2.00;99.90;;;;;;5045044;28;20187;-67
2021/01/27 07:10:53;;;;;;;1999.90;999.90;;;2.00;99.90;;;;;;5052774;28;20171;-67
2021/01/27 07:13:19;;;;;;;1999.90;999.90;;;2.00;99.90;;;;;;5052493;28;20252;-67
2021/01/27 07:15:49;;;;;;;1999.90;999.90;;;2.00;99.90;;;;;;5052692;28;20175;-67
2021/01/27 07:18:24;;;;;;;1999.90;999.90;;;2.10;99.90;;;;;;5052335;28;20174;-67
2021/01/27 07:21:22;;;;;;;1999.90;999.90;;;2.10;99.90;;;;;;5052627;28;20174;-68
2021/01/27 07:23:55;;;;;;;1999.90;999.90;;;2.10;99.90;;;;;;5052529;28;20195;-67
2021/01/27 07:26:41;;;;;;;1999.90;999.90;;;2.10;99.90;;;;;;5052443;28;20250;-67
2021/01/27 07:29:45;;;;;;;1999.90;999.90;;;2.10;99.90;;;;;;5052194;28;20152;-68
2021/01/27 07:32:32;;;;;;;1999.90;999.90;;;2.20;99.90;;;;;;5035968;28;20207;-68
2021/01/27 07:35:12;;;;;;;1999.90;999.90;;;2.20;99.90;;;;;;5052231;28;20172;-68
2021/01/27 07:38:01;;;;;;;1999.90;999.90;;;2.20;99.90;;;;;;5052401;28;20168;-68
2021/01/27 07:40:34;;;;;;;1999.90;999.90;;;2.20;99.90;;;;;;5052231;28;20247;-67
2021/01/27 07:43:03;;;;;;;1999.90;999.90;;;2.20;99.90;;;;;;5051941;28;20253;-67
2021/01/27 07:45:37;;;;;;;1999.90;999.90;;;2.30;99.90;;;;;;5052216;28;20185;-68
2021/01/27 07:48:17;;;;;;;1999.90;999.90;;;2.30;99.90;;;;;;5052292;28;20167;-68
2021/01/27 07:50:52;;;;;;;1999.90;999.90;;;2.40;99.90;;;;;;5052367;28;20544;-68
2021/01/27 07:53:36;;;;;;;1999.90;999.90;;;2.40;99.90;;;;;;5051831;28;20207;-67
2021/01/27 07:56:05;;;;;;;1999.90;999.90;;;2.50;99.90;;;;;;5052006;28;20170;-68
2021/01/27 07:58:34;;;;;;;1999.90;999.90;;;2.60;99.90;;;;;;5051680;28;20160;-67
2021/01/27 08:01:12;;;;;;;1999.90;999.90;;;2.60;99.90;;;;;;5051886;28;20167;-68
2021/01/27 08:04:03;;;;;;;1999.90;999.90;;;2.60;99.90;;;;;;5051772;28;20192;-67
2021/01/27 08:06:38;;;;;;;1999.90;999.90;;;2.60;99.90;;;;;;5051613;28;20172;-67
2021/01/27 08:09:04;;;;;;;1999.90;999.90;;;2.50;99.90;;;;;;5051429;28;20171;-67
2021/01/27 08:11:42;;;;;;;1999.90;999.90;;;2.50;99.90;;;;;;5051536;28;20175;-67
2021/01/27 08:14:13;;;;;;;1999.90;999.90;;;2.50;99.90;;;;;;5051459;28;20281;-67
2021/01/27 08:16:43;;;;;;;1999.90;999.90;;;2.60;99.90;;;;;;5051598;28;20232;-68
2021/01/27 08:19:12;;;;;;;1999.90;999.90;;;2.60;99.90;;;;;;5051205;28;20170;-68
2021/01/27 08:21:55;;;;;;;1999.90;999.90;;;2.60;99.90;;;;;;5051417;28;20164;-67
2021/01/27 08:24:36;;;;;;;1999.90;999.90;;;2.50;99.90;;;;;;5051649;28;20195;-67
2021/01/27 08:27:10;;;;;;;1999.90;999.90;;;2.60;99.90;;;;;;5051346;28;20233;-67
2021/01/27 08:30:02;;;;;;;1999.90;999.90;;;2.60;99.90;;;;;;5051056;28;20166;-67
2021/01/27 08:32:29;;;;;;;1999.90;999.90;;;2.60;99.90;;;;;;5051112;28;20195;-68
2021/01/27 08:35:08;;;;;;;1999.90;999.90;;;2.60;99.90;;;;;;5050958;28;20278;-67
2021/01/27 08:37:37;;;;;;;1999.90;999.90;;;2.60;99.90;;;;;;5051090;28;20183;-68
2021/01/27 08:40:05;;;;;;;1999.90;999.90;;;2.60;99.90;;;;;;5050632;28;20163;-68
2021/01/27 08:42:41;;;;;;;1999.90;999.90;;;2.60;99.90;;;;;;5051284;28;20172;-67
2021/01/27 08:45:21;;;;;;;1999.90;999.90;;;2.60;99.90;;;;;;5051399;28;20175;-67
2021/01/27 08:47:48;;;;;;;1999.90;999.90;;;2.60;99.90;;;;;;5051187;28;20168;-67
2021/01/27 08:50:43;;;;;;;1999.90;999.90;;;2.70;99.90;;;;;;5050808;28;20263;-68
2021/01/27 08:53:12;;;;;;;1999.90;999.90;;;2.70;99.90;;;;;;5046366;28;20692;-68
2021/01/27 08:56:00;;;;;;;1999.90;999.90;;;2.70;99.90;;;;;;5051122;28;20167;-68
2021/01/27 08:58:39;;;;;;;1999.90;999.90;;;2.80;99.90;;;;;;5050876;28;20217;-68
2021/01/27 09:01:10;;;;;;;1999.90;999.90;;;2.80;99.90;;;;;;5051303;28;20167;-68
2021/01/27 09:03:35;;;;;;;1999.90;999.90;;;2.90;99.90;;;;;;5050873;28;20210;-68
2021/01/27 09:06:02;;;;;;;1999.90;999.90;;;2.90;99.90;;;;;;5051041;28;20645;-68
2021/01/27 09:08:31;;;;;;;1999.90;999.90;;;2.90;99.90;;;;;;5050630;28;20183;-68
2021/01/27 09:11:00;;;;;;;1999.90;999.90;;;3.00;99.90;;;;;;5051116;28;20201;-68
2021/01/27 09:13:39;;;;;;;1999.90;999.90;;;3.00;99.90;;;;;;5051409;28;20722;-68
2021/01/27 09:16:27;;;;;;;1999.90;999.90;;;3.10;99.90;;;;;;5051363;28;20597;-68
2021/01/27 09:18:57;;;;;;;1999.90;999.90;;;3.20;99.90;;;;;;5051260;28;20175;-68
2021/01/27 09:21:23;;;;;;;1999.90;999.90;;;3.20;99.90;;;;;;5051510;28;20537;-68
2021/01/27 09:24:02;;;;;;;1999.90;999.90;;;3.20;99.90;;;;;;5051602;28;20226;-68
2021/01/27 09:26:41;;;;;;;1999.90;999.90;;;3.30;99.90;;;;;;5050946;28;20178;-68
2021/01/27 09:29:14;;;;;;;1999.90;999.90;;;3.20;99.90;;;;;;5050693;28;20171;-68
2021/01/27 09:31:40;;;;;;;1999.90;999.90;;;3.10;99.90;;;;;;5050946;28;20195;-68
2021/01/27 09:34:16;;;;;;;1999.90;999.90;;;3.10;99.90;;;;;;5051168;28;20845;-68
2021/01/27 09:36:43;;;;;;;1999.90;999.90;;;3.10;99.90;;;;;;5051400;28;20190;-68
2021/01/27 09:39:10;;;;;;;1999.90;999.90;;;3.10;99.90;;;;;;5051020;28;20178;-68
2021/01/27 09:41:36;;;;;;;1999.90;999.90;;;3.20;99.90;;;;;;5051420;28;20205;-68
2021/01/27 09:44:03;;;;;;;1999.90;999.90;;;3.10;99.90;;;;;;5051313;28;20207;-68
2021/01/27 09:46:37;;;;;;;1999.90;999.90;;;3.00;99.90;;;;;;5051278;28;20406;-68
2021/01/27 09:49:04;;;;;;;1999.90;999.90;;;3.10;99.90;;;;;;5050921;28;20167;-68
2021/01/27 09:51:31;;;;;;;1999.90;999.90;;;3.10;99.90;;;;;;5052983;28;20175;-68
2021/01/27 09:54:01;;;;;;;1999.90;999.90;;;3.10;99.90;;;;;;5055056;28;20705;-68
2021/01/27 09:56:29;;;;;;;1999.90;999.90;;;3.10;99.90;;;;;;5054605;28;20171;-68
2021/01/27 09:58:56;;;;;;;1999.90;999.90;;;3.20;99.90;;;;;;5054016;28;20168;-68
2021/01/27 10:01:32;;;;;;;1999.90;999.90;;;3.20;99.90;;;;;;5054497;28;20527;-68
2021/01/27 10:04:13;;;;;;;1999.90;999.90;;;3.20;99.90;;;;;;5054753;28;20592;-68
2021/01/27 10:06:44;;;;;;;1999.90;999.90;;;3.30;99.90;;;;;;5054457;28;20590;-68
2021/01/27 10:09:20;;;;;;;1999.90;999.90;;;3.30;99.90;;;;;;5054375;28;20164;-68
2021/01/27 10:11:56;;;;;;;1999.90;999.90;;;3.40;99.90;;;;;;5054925;28;20198;-68
2021/01/27 10:14:24;;;;;;;1999.90;999.90;;;3.50;99.90;;;;;;5054776;28;20680;-68
2021/01/27 10:16:55;;;;;;;1999.90;999.90;;;3.50;99.90;;;;;;5054882;28;20217;-68
2021/01/27 10:19:47;;;;;;;1999.90;999.90;;;3.60;99.90;;;;;;5054801;28;20167;-68
2021/01/27 10:22:23;;;;;;;1999.90;999.90;;;3.70;99.90;;;;;;5036085;28;20224;-68
2021/01/27 10:25:00;;;;;;;1999.90;999.90;;;3.60;99.90;;;;;;5054728;28;20199;-68
2021/01/27 10:27:33;;;;;;;1999.90;999.90;;;3.70;99.90;;;;;;5055174;28;20175;-68
2021/01/27 10:30:00;;;;;;;1999.90;999.90;;;3.80;99.90;;;;;;5054608;28;20164;-68
2021/01/27 10:32:31;;;;;;;1999.90;999.90;;;3.90;99.90;;;;;;5054627;28;20204;-68
2021/01/27 10:34:57;;;;;;;1999.90;999.90;;;3.90;99.90;;;;;;5055037;28;20160;-68
2021/01/27 10:37:45;;;;;;;1999.90;999.90;;;3.90;99.90;;;;;;5055236;28;20194;-68
2021/01/27 10:40:29;;;;;;;1999.90;999.90;;;4.00;99.90;;;;;;5055393;28;20251;-68
2021/01/27 10:43:11;;;;;;;1999.90;999.90;;;4.20;99.90;;;;;;5054353;28;20245;-68
2021/01/27 10:45:39;;;;;;;1999.90;999.90;;;4.30;99.90;;;;;;5053320;28;20168;-67
2021/01/27 10:48:10;;;;;;;1999.90;999.90;;;4.30;99.90;;;;;;5053331;28;20180;-68
2021/01/27 10:50:52;;;;;;;1999.90;999.90;;;4.40;99.90;;;;;;5053016;28;20442;-67
2021/01/27 10:53:18;;;;;;;1999.90;999.90;;;4.40;99.90;;;;;;5052694;28;20450;-68
2021/01/27 10:55:51;;;;;;;1999.90;999.90;;;4.30;99.90;;;;;;5052970;28;20741;-67
2021/01/27 10:58:17;;;;;;;1999.90;999.90;;;4.40;99.90;;;;;;5052737;28;20394;-67
2021/01/27 11:00:44;;;;;;;1999.90;999.90;;;4.30;99.90;;;;;;5052841;28;20971;-67
2021/01/27 11:03:10;;;;;;;1999.90;999.90;;;4.40;99.90;;;;;;5052320;28;20223;-67
2021/01/27 11:05:36;;;;;;;1999.90;999.90;;;4.40;99.90;;;;;;5052642;28;20172;-67
2021/01/27 11:08:06;;;;;;;1999.90;999.90;;;4.40;99.90;;;;;;5052494;28;20171;-67
2021/01/27 11:10:32;;;;;;;1999.90;999.90;;;4.40;99.90;;;;;;5050765;28;20179;-68
2021/01/27 11:12:59;;;;;;;1999.90;999.90;;;4.40;99.90;;;;;;5052092;28;20200;-68
2021/01/27 11:15:25;;;;;;;1999.90;999.90;;;4.30;99.90;;;;;;5052415;28;20293;-67
2021/01/27 11:17:51;;;;;;;1999.90;999.90;;;4.30;99.90;;;;;;5052360;28;20167;-67
2021/01/27 11:20:19;;;;;;;1999.90;999.90;;;4.40;99.90;;;;;;5051980;28;20164;-66
2021/01/27 11:22:48;;;;;;;1999.90;999.90;;;4.30;99.90;;;;;;5053695;28;20164;-68
2021/01/27 11:25:16;;;;;;;1999.90;999.90;;;4.40;99.90;;;;;;5052896;28;20174;-67
2021/01/27 11:27:42;;;;;;;1999.90;999.90;;;4.30;99.90;;;;;;5052129;28;20172;-66
2021/01/27 11:30:08;;;;;;;1999.90;999.90;;;4.30;99.90;;;;;;5051835;28;20198;-66
2021/01/27 11:32:35;;;;;;;1999.90;999.90;;;4.30;99.90;;;;;;5051889;28;20449;-66
2021/01/27 11:35:01;;;;;;;1999.90;999.90;;;4.30;99.90;;;;;;5052480;28;20891;-66
2021/01/27 11:37:27;;;;;;;1999.90;999.90;;;4.30;99.90;;;;;;5051891;28;20239;-66
2021/01/27 11:39:53;;;;;;;1999.90;999.90;;;4.30;99.90;;;;;;5051697;28;20684;-66
2021/01/27 11:42:18;;;;;;;1999.90;999.90;;;4.30;99.90;;;;;;5049443;28;20198;-67
2021/01/27 11:44:44;;;;;;;1999.90;999.90;;;4.20;99.90;;;;;;5049377;28;20680;-66
2021/01/27 11:47:10;;;;;;;1999.90;999.90;;;4.20;99.90;;;;;;5050304;28;20167;-66
2021/01/27 11:49:35;;;;;;;1999.90;999.90;;;4.30;99.90;;;;;;5049716;28;20175;-66
2021/01/27 11:52:04;;;;;;;1999.90;999.90;;;4.40;99.90;;;;;;5050023;28;20863;-66
2021/01/27 11:54:29;;;;;;;1999.90;999.90;;;4.30;99.90;;;;;;5050332;28;20227;-66
2021/01/27 11:56:55;;;;;;;1999.90;999.90;;;4.40;99.90;;;;;;5050260;28;20172;-66
2021/01/27 11:59:20;;;;;;;1999.90;999.90;;;4.30;99.90;;;;;;5049166;28;20243;-67
2021/01/27 12:01:46;;;;;;;1999.90;999.90;;;4.40;99.90;;;;;;5050207;28;20164;-67
2021/01/27 12:04:12;;;;;;;1999.90;999.90;;;4.40;99.90;;;;;;5050163;28;20187;-66
2021/01/27 12:06:37;;;;;;;1999.90;999.90;;;4.40;99.90;;;;;;5049807;28;20178;-67
2021/01/27 12:09:03;;;;;;;1999.90;999.90;;;4.40;99.90;;;;;;5050226;28;20179;-67
2021/01/27 12:11:29;;;;;;;1999.90;999.90;;;4.40;99.90;;;;;;5050691;28;20251;-67
2021/01/27 12:13:54;;;;;;;1999.90;999.90;;;4.40;99.90;;;;;;5049164;28;20450;-66
2021/01/27 12:16:20;;;;;;;1999.90;999.90;;;4.40;99.90;;;;;;5050330;28;20179;-66
2021/01/27 12:18:46;;;;;;;1999.90;999.90;;;4.50;99.90;;;;;;5049732;28;20762;-67
2021/01/27 12:21:11;;;;;;;1999.90;999.90;;;4.50;99.90;;;;;;5049920;28;20176;-67
2021/01/27 12:23:37;;;;;;;1999.90;999.90;;;4.50;99.90;;;;;;5049743;28;20191;-67
2021/01/27 12:26:02;;;;;;;1999.90;999.90;;;4.60;99.90;;;;;;5050300;28;20178;-66
2021/01/27 12:28:28;;;;;;;1999.90;999.90;;;4.60;99.90;;;;;;5048889;28;20174;-67
2021/01/27 12:30:54;;;;;;;1999.90;999.90;;;4.60;99.90;;;;;;5046594;28;20186;-67
2021/01/27 12:33:19;;;;;;;1999.90;999.90;;;4.60;99.90;;;;;;5048837;28;20799;-67
2021/01/27 12:35:45;;;;;;;1999.90;999.90;;;4.60;99.90;;;;;;5049052;28;20207;-65
2021/01/27 12:38:10;;;;;;;1999.90;999.90;;;4.60;99.90;;;;;;5049384;28;20284;-66